CYWK

Details ICAO CYWK (YWK)
Name WABUSH
Region Canada
Timezone America/Goose_Bay (UTC-3.0)
Plans Departing 25
Arriving 35
Stats Elevation 1,808 ft / 551 m (AMSL)
Location 52.907429° -66.854885°
Runways 1
Magnetic Variation 19.836° W
Sunrise 2018-05-24 08:18:16 UTC / 2018-05-24 05:18:16 Local
Sunset 2018-05-25 00:33:09 UTC / 2018-05-24 21:33:09 Local
Advertisement - Login to hide

Runways

ID Width Length Bearing (true) Bearing (mag) Surface Threshold Offset Overrun Length
18 150 ft / 46 m 5,995 ft / 1,827 m 157.18° 177.02° Asphalt 0 ft / 0 m 0 ft / 0 m
36 150 ft / 46 m 5,995 ft / 1,827 m 337.18° 357.02° Asphalt 0 ft / 0 m 0 ft / 0 m

Map

Weather


0- 5 10 15 20 25 30 35+ Temperature / ° C

Clouds and Precipitation
Forecast for 2018-05-24 12:00 UTC. Updated 5 hours ago

Ground ~20,000 ft ~40,000 ft Winds

METAR

CYWK 241500Z VRB07KT 15SM FEW030 SCT230 02/M09 A2992 RMK CF1CI3 SLP162

TAF

TAF CYWK 241338Z 2414/2502 VRB03KT P6SM SCT040 FM241600 24008KT P6SM BKN040 FM242300 14006KT P6SM -SN OVC030 TEMPO 2423/2502 21/2SM -SN OVC020 RMK NXT FCST BY 242000Z

Frequencies

Tower 122.00 MHz MF
Approach 132.25 MHz MONTREAL CNTR
Warning: Do not use this data for real-world aviation or navigation. No guarantee of current accuracy is given.